Time;durP1;ratioP1;P1;durP2;ratioP2;P2;SDS_P1;SDS_P2;PMS_P1;PMS_P2;Temp;Humidity;BMP_temperature;BMP_pressure;BME280_temperature;BME280_humidity;BME280_pressure;Samples;Min_cycle;Max_cycle;Signal;HPM_P1;HPM_P2
2022/01/05 00:00:07;;;;;;;11.90;2.38;;;2.50;99.90;;;;;;4911375;29;20076;-80
2022/01/05 00:02:35;;;;;;;10.98;2.38;;;2.50;99.90;;;;;;4922175;29;20056;-81
2022/01/05 00:05:04;;;;;;;10.88;2.63;;;2.50;99.90;;;;;;4942250;29;20060;-80
2022/01/05 00:07:30;;;;;;;9.52;2.28;;;2.50;99.90;;;;;;4910690;29;20112;-79
2022/01/05 00:09:55;;;;;;;6.27;2.20;;;2.40;99.90;;;;;;4928197;29;20083;-80
2022/01/05 00:12:21;;;;;;;14.87;2.87;;;2.50;99.90;;;;;;4908639;29;20044;-79
2022/01/05 00:14:47;;;;;;;10.03;2.30;;;2.40;99.90;;;;;;4915333;29;20055;-80
2022/01/05 00:17:12;;;;;;;11.70;2.50;;;2.40;99.90;;;;;;4911030;29;20052;-80
2022/01/05 00:19:39;;;;;;;8.50;2.47;;;2.40;99.90;;;;;;4928570;29;20144;-79
2022/01/05 00:22:05;;;;;;;10.98;2.80;;;2.40;99.90;;;;;;4910610;29;20318;-79
2022/01/05 00:24:31;;;;;;;14.27;2.80;;;2.40;99.90;;;;;;4926614;29;20072;-79
2022/01/05 00:26:57;;;;;;;10.23;2.65;;;2.40;99.90;;;;;;4934568;29;20047;-79
2022/01/05 00:29:22;;;;;;;15.07;3.63;;;2.40;99.90;;;;;;4946671;29;20115;-79
2022/01/05 00:31:48;;;;;;;8.20;2.50;;;2.30;99.90;;;;;;4930045;29;20047;-79
2022/01/05 00:34:14;;;;;;;13.35;2.35;;;2.30;99.90;;;;;;4926130;29;20052;-79
2022/01/05 00:36:40;;;;;;;16.33;2.63;;;2.30;99.90;;;;;;4910423;29;20131;-79
2022/01/05 00:39:06;;;;;;;10.07;2.87;;;2.30;99.90;;;;;;4927473;29;20040;-79
2022/01/05 00:41:31;;;;;;;10.90;2.40;;;2.30;99.90;;;;;;4927511;29;20055;-78
2022/01/05 00:43:57;;;;;;;12.23;2.38;;;2.30;99.90;;;;;;4927156;29;20076;-79
2022/01/05 00:46:23;;;;;;;13.00;2.80;;;2.30;99.90;;;;;;4925815;29;20064;-79
2022/01/05 00:48:49;;;;;;;13.65;2.83;;;2.30;99.90;;;;;;4925983;29;20441;-78
2022/01/05 00:51:15;;;;;;;23.00;2.97;;;2.30;99.90;;;;;;4925568;29;20056;-79
2022/01/05 00:53:42;;;;;;;13.65;2.80;;;2.30;99.90;;;;;;4909657;29;20064;-79
2022/01/05 00:56:08;;;;;;;9.80;3.30;;;2.40;99.90;;;;;;4923251;29;20070;-78
2022/01/05 00:58:34;;;;;;;11.48;2.47;;;2.50;99.90;;;;;;4909789;29;20048;-78
2022/01/05 01:01:00;;;;;;;25.15;3.50;;;2.50;99.90;;;;;;4909974;29;20060;-78
2022/01/05 01:03:28;;;;;;;15.57;3.25;;;2.50;99.90;;;;;;4927216;29;20459;-78
2022/01/05 01:05:56;;;;;;;14.68;3.05;;;2.50;99.90;;;;;;4905576;29;20048;-78
2022/01/05 01:08:22;;;;;;;10.60;2.67;;;2.40;99.90;;;;;;4923282;29;20052;-78
2022/01/05 01:10:49;;;;;;;14.10;2.92;;;2.40;99.90;;;;;;4909621;29;20052;-78
2022/01/05 01:13:17;;;;;;;13.02;3.10;;;2.40;99.90;;;;;;4925245;29;20080;-77
2022/01/05 01:15:48;;;;;;;17.60;3.47;;;2.40;99.90;;;;;;4909700;29;20052;-78
2022/01/05 01:18:14;;;;;;;15.35;2.90;;;2.40;99.90;;;;;;4916186;29;20047;-78
2022/01/05 01:20:40;;;;;;;13.15;2.78;;;2.40;99.90;;;;;;4915584;29;20087;-78
2022/01/05 01:23:06;;;;;;;18.33;3.15;;;2.40;99.90;;;;;;4907984;29;20380;-78
2022/01/05 01:25:33;;;;;;;19.80;3.67;;;2.40;99.90;;;;;;4926700;29;20380;-78
2022/01/05 01:27:58;;;;;;;15.27;3.20;;;2.50;99.90;;;;;;4933498;29;20059;-78
2022/01/05 01:30:24;;;;;;;9.70;3.10;;;2.50;99.90;;;;;;4893858;29;20040;-78
2022/01/05 01:32:50;;;;;;;14.53;3.60;;;2.50;99.90;;;;;;4909214;29;20091;-78
2022/01/05 01:35:15;;;;;;;14.47;2.73;;;2.60;99.90;;;;;;4892460;29;20060;-78
2022/01/05 01:37:41;;;;;;;19.67;3.13;;;2.60;99.90;;;;;;4925019;29;20040;-79
2022/01/05 01:40:08;;;;;;;14.90;2.85;;;2.60;99.90;;;;;;4909619;29;20230;-78
2022/01/05 01:42:33;;;;;;;;;;;2.60;99.90;;;;;;4909168;29;20491;-78
2022/01/05 01:44:59;;;;;;;9.50;3.30;;;2.60;99.90;;;;;;4909223;29;19927;-78
2022/01/05 01:47:25;;;;;;;13.10;3.50;;;2.70;99.90;;;;;;4909097;29;20048;-78
2022/01/05 01:49:50;;;;;;;19.95;4.30;;;2.70;99.90;;;;;;4926624;29;20056;-78
2022/01/05 01:52:16;;;;;;;22.70;3.43;;;2.70;99.90;;;;;;4909126;29;20539;-77
2022/01/05 01:54:42;;;;;;;23.88;3.10;;;2.70;99.90;;;;;;4909214;29;20587;-79
2022/01/05 01:57:08;;;;;;;15.93;3.03;;;2.70;99.90;;;;;;4907540;29;20055;-78
2022/01/05 01:59:35;;;;;;;14.77;2.90;;;2.70;99.90;;;;;;4940610;29;20068;-78
2022/01/05 02:02:01;;;;;;;19.02;3.20;;;2.80;99.90;;;;;;4940978;29;20048;-78
2022/01/05 02:04:27;;;;;;;16.15;3.85;;;2.80;99.90;;;;;;4926596;29;20130;-78
2022/01/05 02:06:52;;;;;;;14.55;3.22;;;2.80;99.90;;;;;;4892997;29;20195;-78
2022/01/05 02:09:18;;;;;;;14.27;2.77;;;2.90;99.90;;;;;;4925406;29;20066;-78
2022/01/05 02:11:45;;;;;;;17.13;3.40;;;2.90;99.90;;;;;;4926605;29;20036;-78
2022/01/05 02:14:10;;;;;;;16.67;3.50;;;2.90;99.90;;;;;;4909118;29;20084;-78
2022/01/05 02:16:40;;;;;;;21.40;4.73;;;2.90;99.90;;;;;;4909223;29;20051;-79
2022/01/05 02:19:06;;;;;;;10.55;2.85;;;2.80;99.90;;;;;;4948766;29;20787;-78
2022/01/05 02:21:35;;;;;;;20.92;3.25;;;2.80;99.90;;;;;;4909480;29;20461;-78
2022/01/05 02:24:02;;;;;;;10.95;2.90;;;2.80;99.90;;;;;;4926305;29;20133;-78
2022/01/05 02:26:28;;;;;;;18.60;3.58;;;2.80;99.90;;;;;;4913086;29;20044;-78
2022/01/05 02:28:53;;;;;;;11.45;2.75;;;2.80;99.90;;;;;;4928017;29;20048;-79
2022/01/05 02:31:19;;;;;;;24.70;3.53;;;2.80;99.90;;;;;;4930084;29;20080;-79
2022/01/05 02:33:45;;;;;;;10.97;2.77;;;2.80;99.90;;;;;;4912663;29;20088;-78
2022/01/05 02:36:15;;;;;;;19.20;3.35;;;2.80;99.90;;;;;;4896722;29;20518;-78
2022/01/05 02:38:41;;;;;;;16.42;2.90;;;2.80;99.90;;;;;;4920543;29;20063;-78
2022/01/05 02:41:09;;;;;;;16.70;3.30;;;2.80;99.90;;;;;;4925228;29;20044;-78
2022/01/05 02:43:36;;;;;;;15.00;3.17;;;2.80;99.90;;;;;;4922693;29;20048;-78
2022/01/05 02:46:01;;;;;;;;;;;2.80;99.90;;;;;;4912797;29;20089;-78
2022/01/05 02:48:27;;;;;;;14.00;2.97;;;2.80;99.90;;;;;;4910551;29;19967;-79
2022/01/05 02:50:57;;;;;;;15.77;3.63;;;2.80;99.90;;;;;;4922813;29;20079;-78
2022/01/05 02:53:23;;;;;;;15.73;3.35;;;2.80;99.90;;;;;;4929225;29;20059;-78
2022/01/05 02:55:50;;;;;;;19.83;3.25;;;2.80;99.90;;;;;;4929285;29;20048;-79
2022/01/05 02:58:15;;;;;;;14.60;2.92;;;2.90;99.90;;;;;;4911976;29;20044;-79
2022/01/05 03:00:41;;;;;;;17.57;3.27;;;2.90;99.90;;;;;;4903512;29;20109;-78
2022/01/05 03:03:07;;;;;;;15.53;3.53;;;3.00;99.90;;;;;;4928933;29;20660;-78
2022/01/05 03:05:33;;;;;;;23.03;4.53;;;3.00;99.90;;;;;;4929202;29;20296;-78
2022/01/05 03:07:58;;;;;;;21.05;3.75;;;3.10;99.90;;;;;;4911739;29;20048;-78
2022/01/05 03:10:24;;;;;;;23.17;4.43;;;3.20;99.90;;;;;;4927635;29;20044;-78
2022/01/05 03:12:50;;;;;;;14.90;3.40;;;3.30;99.90;;;;;;4911757;29;20084;-77
2022/01/05 03:15:15;;;;;;;15.23;3.40;;;3.40;99.90;;;;;;4912087;29;20288;-77
2022/01/05 03:17:41;;;;;;;19.70;3.17;;;3.40;99.90;;;;;;4914238;29;20111;-77
2022/01/05 03:20:09;;;;;;;24.50;3.95;;;3.50;99.90;;;;;;4930653;29;20047;-77
2022/01/05 03:22:35;;;;;;;15.60;3.17;;;3.50;99.90;;;;;;4928152;29;20048;-78
2022/01/05 03:25:01;;;;;;;18.60;3.42;;;3.50;99.90;;;;;;4911637;29;20048;-77
2022/01/05 03:27:26;;;;;;;12.57;2.88;;;3.50;99.90;;;;;;4931256;29;20751;-79
2022/01/05 03:29:52;;;;;;;15.53;3.30;;;3.60;99.90;;;;;;4895681;29;20145;-78
2022/01/05 03:32:18;;;;;;;14.43;3.13;;;3.50;99.90;;;;;;4907245;29;20118;-78
2022/01/05 03:34:45;;;;;;;16.67;3.00;;;3.60;99.90;;;;;;4911324;29;20055;-76
2022/01/05 03:37:11;;;;;;;17.80;4.22;;;3.50;99.90;;;;;;4911345;29;20051;-78
2022/01/05 03:39:36;;;;;;;16.40;3.40;;;3.50;99.90;;;;;;4911723;29;20048;-78
2022/01/05 03:42:02;;;;;;;17.33;3.27;;;3.50;99.90;;;;;;4911046;29;20848;-78
2022/01/05 03:44:28;;;;;;;11.93;3.10;;;3.50;99.90;;;;;;4911090;29;20056;-78
2022/01/05 03:46:55;;;;;;;16.13;3.50;;;3.50;99.90;;;;;;4928520;29;20060;-78
2022/01/05 03:49:21;;;;;;;16.48;3.58;;;3.50;99.90;;;;;;4928248;29;20080;-78
2022/01/05 03:51:46;;;;;;;15.23;3.00;;;3.40;99.90;;;;;;4895646;29;20067;-78
2022/01/05 03:54:12;;;;;;;21.50;3.53;;;3.40;99.90;;;;;;4916107;29;20052;-79
2022/01/05 03:56:38;;;;;;;17.30;3.47;;;3.40;99.90;;;;;;4911264;29;20055;-79
2022/01/05 03:59:03;;;;;;;20.03;3.67;;;3.40;99.90;;;;;;4918832;29;20051;-79
2022/01/05 04:01:29;;;;;;;13.43;2.80;;;3.40;99.90;;;;;;4928477;29;20044;-79
2022/01/05 04:03:55;;;;;;;20.45;3.83;;;3.40;99.90;;;;;;4902109;29;20064;-79
2022/01/05 04:06:20;;;;;;;21.47;3.57;;;3.30;99.90;;;;;;4892652;29;20057;-78
2022/01/05 04:08:46;;;;;;;13.77;2.60;;;3.30;99.90;;;;;;4938202;29;20063;-78
2022/01/05 04:11:12;;;;;;;16.07;2.97;;;3.40;99.90;;;;;;4910844;29;20049;-78
2022/01/05 04:13:38;;;;;;;12.00;3.43;;;3.40;99.90;;;;;;4909451;29;20056;-79
2022/01/05 04:16:04;;;;;;;12.30;2.83;;;3.50;99.90;;;;;;4926879;29;20544;-79
2022/01/05 04:18:30;;;;;;;13.30;2.88;;;3.50;99.90;;;;;;4950659;29;20059;-78
2022/01/05 04:20:55;;;;;;;9.87;3.00;;;3.40;99.90;;;;;;4947312;29;20083;-79
2022/01/05 04:23:22;;;;;;;15.37;3.10;;;3.40;99.90;;;;;;4914914;29;20107;-79
2022/01/05 04:25:48;;;;;;;13.25;2.75;;;3.40;99.90;;;;;;4910586;29;20052;-79
2022/01/05 04:28:13;;;;;;;9.90;2.13;;;3.40;99.90;;;;;;4915492;29;20051;-79
2022/01/05 04:30:39;;;;;;;15.93;2.97;;;3.40;99.90;;;;;;4910714;29;20052;-78
2022/01/05 04:33:05;;;;;;;10.30;2.63;;;3.30;99.90;;;;;;4927666;29;20142;-78
2022/01/05 04:35:30;;;;;;;12.23;2.70;;;3.30;99.90;;;;;;4908824;29;20071;-78
2022/01/05 04:37:56;;;;;;;12.33;2.73;;;3.30;99.90;;;;;;4910217;29;20071;-79
2022/01/05 04:40:22;;;;;;;7.63;2.07;;;3.30;99.90;;;;;;4910596;29;20400;-79
2022/01/05 04:42:47;;;;;;;10.63;3.43;;;3.30;99.90;;;;;;4927397;29;20052;-79
2022/01/05 04:45:13;;;;;;;10.93;2.77;;;3.30;99.90;;;;;;4909909;29;20052;-79
2022/01/05 04:47:39;;;;;;;12.50;2.58;;;3.20;99.90;;;;;;4909582;29;20056;-79
2022/01/05 04:50:05;;;;;;;15.10;3.07;;;3.20;99.90;;;;;;4906749;29;20045;-79
2022/01/05 04:52:30;;;;;;;16.85;3.03;;;3.20;99.90;;;;;;4891372;29;20060;-79
2022/01/05 04:54:56;;;;;;;14.00;2.83;;;3.20;99.90;;;;;;4901568;29;20143;-79
2022/01/05 04:57:22;;;;;;;22.02;3.15;;;3.20;99.90;;;;;;4908345;29;20070;-79
2022/01/05 04:59:47;;;;;;;15.60;3.43;;;3.20;99.90;;;;;;4918680;29;20547;-79
2022/01/05 05:02:14;;;;;;;15.13;2.67;;;3.30;99.90;;;;;;4910386;29;20076;-79
2022/01/05 05:04:40;;;;;;;13.35;2.92;;;3.30;99.90;;;;;;4910157;29;20111;-79
2022/01/05 05:07:06;;;;;;;24.02;3.85;;;3.30;99.90;;;;;;4934421;29;20044;-79
2022/01/05 05:09:32;;;;;;;13.13;3.50;;;3.30;99.90;;;;;;4926695;29;20127;-79
2022/01/05 05:11:58;;;;;;;16.48;3.30;;;3.30;99.90;;;;;;4909837;29;20067;-80
2022/01/05 05:14:23;;;;;;;21.33;3.85;;;3.40;99.90;;;;;;4909944;29;20044;-80
2022/01/05 05:16:49;;;;;;;17.40;3.50;;;3.40;99.90;;;;;;4927083;29;20210;-80
2022/01/05 05:19:15;;;;;;;14.83;3.33;;;3.50;99.90;;;;;;4923774;29;20044;-80
2022/01/05 05:21:40;;;;;;;18.63;4.30;;;3.50;99.90;;;;;;4921842;29;20052;-80
2022/01/05 05:24:06;;;;;;;16.90;3.60;;;3.50;99.90;;;;;;4909508;29;20072;-80
2022/01/05 05:26:32;;;;;;;23.87;4.03;;;3.60;99.90;;;;;;4926827;29;20056;-79
2022/01/05 05:28:58;;;;;;;17.48;3.05;;;3.60;99.90;;;;;;4919011;29;20045;-79
2022/01/05 05:31:23;;;;;;;15.97;4.20;;;3.70;99.90;;;;;;4910359;29;20048;-80
2022/01/05 05:33:49;;;;;;;15.73;3.57;;;3.70;99.90;;;;;;4926912;29;20055;-79
2022/01/05 05:36:15;;;;;;;18.87;3.50;;;3.70;99.90;;;;;;4926858;29;20122;-79
2022/01/05 05:38:45;;;;;;;13.97;3.27;;;3.80;99.90;;;;;;4892768;29;20132;-79
2022/01/05 05:41:11;;;;;;;14.88;2.85;;;3.80;99.90;;;;;;4909484;29;20308;-80
2022/01/05 05:43:37;;;;;;;18.97;3.30;;;3.80;99.90;;;;;;4909807;29;20056;-79
2022/01/05 05:46:02;;;;;;;26.33;4.00;;;3.80;99.90;;;;;;4926804;29;20059;-79
2022/01/05 05:48:28;;;;;;;24.40;3.80;;;3.80;99.90;;;;;;4909004;29;20096;-76
2022/01/05 05:50:54;;;;;;;19.33;3.43;;;3.80;99.90;;;;;;4893633;29;20052;-73
2022/01/05 05:53:19;;;;;;;13.60;3.17;;;3.70;99.90;;;;;;4926335;29;20044;-74
2022/01/05 05:55:45;;;;;;;9.97;2.93;;;3.40;99.90;;;;;;4909500;29;20080;-76
2022/01/05 05:58:10;;;;;;;14.43;3.20;;;3.30;99.90;;;;;;4927059;29;20047;-76
2022/01/05 06:00:36;;;;;;;18.63;3.40;;;3.20;99.90;;;;;;4906879;29;20037;-77
2022/01/05 06:03:02;;;;;;;16.27;3.80;;;3.20;99.90;;;;;;4925406;29;20043;-78
2022/01/05 06:05:28;;;;;;;22.73;3.73;;;3.20;99.90;;;;;;4931086;29;20385;-76
2022/01/05 06:07:53;;;;;;;15.47;3.27;;;3.20;99.90;;;;;;4913086;29;20312;-76
2022/01/05 06:10:19;;;;;;;15.67;3.30;;;3.30;99.90;;;;;;4912958;29;20059;-75
2022/01/05 06:12:45;;;;;;;23.80;3.25;;;3.30;99.90;;;;;;4912708;29;20080;-76
2022/01/05 06:15:10;;;;;;;25.73;3.87;;;3.30;99.90;;;;;;4913254;29;20395;-75
2022/01/05 06:17:36;;;;;;;14.90;2.77;;;3.40;99.90;;;;;;4914751;29;20175;-77
2022/01/05 06:20:04;;;;;;;18.67;3.60;;;3.40;99.90;;;;;;4949539;29;20050;-78
2022/01/05 06:22:31;;;;;;;17.33;3.25;;;3.40;99.90;;;;;;4936220;29;20055;-79
2022/01/05 06:24:57;;;;;;;17.67;3.03;;;3.40;99.90;;;;;;4912967;29;20081;-80
2022/01/05 06:27:22;;;;;;;19.73;4.18;;;3.50;99.90;;;;;;4912509;29;20067;-79
2022/01/05 06:29:48;;;;;;;18.20;3.10;;;3.50;99.90;;;;;;4912795;29;20052;-80
2022/01/05 06:32:14;;;;;;;15.63;3.80;;;3.50;99.90;;;;;;4911294;29;20044;-80
2022/01/05 06:34:39;;;;;;;21.07;3.60;;;3.50;99.90;;;;;;4912803;29;20071;-72
2022/01/05 06:37:05;;;;;;;17.20;3.43;;;3.60;99.90;;;;;;4912477;29;20413;-68
2022/01/05 06:39:31;;;;;;;24.45;3.53;;;3.60;99.90;;;;;;4929863;29;20303;-75
2022/01/05 06:41:57;;;;;;;17.85;3.78;;;3.70;99.90;;;;;;4912990;29;20043;-74
2022/01/05 06:44:23;;;;;;;20.67;3.47;;;3.70;99.90;;;;;;4898206;29;20072;-81
2022/01/05 06:46:48;;;;;;;23.35;3.80;;;3.70;99.90;;;;;;4944155;29;20456;-82
2022/01/05 06:49:14;;;;;;;22.27;3.70;;;3.80;99.90;;;;;;4896848;29;20056;-83
2022/01/05 06:51:40;;;;;;;18.58;3.58;;;3.80;99.90;;;;;;4929676;29;20445;-83
2022/01/05 06:54:05;;;;;;;19.43;3.20;;;3.80;99.90;;;;;;4929625;29;20160;-85
2022/01/05 06:56:31;;;;;;;16.03;3.37;;;3.90;99.90;;;;;;4912397;29;20075;-82
2022/01/05 06:58:56;;;;;;;20.87;3.37;;;3.90;99.90;;;;;;4944010;29;20064;-84
2022/01/05 07:01:22;;;;;;;18.73;3.47;;;3.90;99.90;;;;;;4912222;29;20075;-84
2022/01/05 07:03:48;;;;;;;21.37;3.33;;;3.90;99.90;;;;;;4911261;29;20062;-81
2022/01/05 07:06:13;;;;;;;22.77;3.50;;;3.90;99.90;;;;;;4912548;29;20052;-81
2022/01/05 07:08:40;;;;;;;18.33;3.07;;;4.00;99.90;;;;;;4931827;29;20059;-82
2022/01/05 07:11:05;;;;;;;21.80;3.60;;;4.00;99.90;;;;;;4943150;29;20054;-77
2022/01/05 07:13:31;;;;;;;13.17;2.87;;;4.00;99.90;;;;;;4912055;29;20076;-79
2022/01/05 07:15:57;;;;;;;13.23;3.00;;;4.00;99.90;;;;;;4910918;29;20078;-83
2022/01/05 07:18:22;;;;;;;18.10;3.13;;;4.00;99.90;;;;;;4937022;29;20483;-81
2022/01/05 07:20:48;;;;;;;19.07;2.70;;;3.90;99.90;;;;;;4931058;29;20487;-82
2022/01/05 07:23:13;;;;;;;14.23;3.10;;;3.90;99.90;;;;;;4920287;29;20480;-78
2022/01/05 07:25:39;;;;;;;14.43;3.13;;;3.80;99.90;;;;;;4907932;29;20397;-72
2022/01/05 07:28:05;;;;;;;19.57;4.30;;;3.90;99.90;;;;;;4911580;29;20416;-69
2022/01/05 07:30:30;;;;;;;10.73;2.20;;;3.90;99.90;;;;;;4896181;29;20052;-71
2022/01/05 07:32:56;;;;;;;17.53;2.70;;;3.90;99.90;;;;;;4911206;29;20044;-72
2022/01/05 07:35:22;;;;;;;21.20;3.13;;;3.90;99.90;;;;;;4895966;29;20083;-72
2022/01/05 07:37:47;;;;;;;17.27;3.03;;;3.90;99.90;;;;;;4893804;29;20176;-72
2022/01/05 07:40:13;;;;;;;15.23;3.40;;;3.90;99.90;;;;;;4928617;29;20033;-70
2022/01/05 07:42:39;;;;;;;21.10;3.67;;;4.00;99.90;;;;;;4910802;29;20886;-72
2022/01/05 07:45:07;;;;;;;17.88;2.88;;;3.90;99.90;;;;;;4942594;29;20300;-72
2022/01/05 07:47:33;;;;;;;15.48;2.92;;;4.00;99.90;;;;;;4910524;29;20063;-73
2022/01/05 07:49:59;;;;;;;;;;;4.00;99.90;;;;;;4911871;29;20143;-71
2022/01/05 07:52:25;;;;;;;12.90;2.83;;;3.90;99.90;;;;;;4938994;29;19978;-71
2022/01/05 07:54:52;;;;;;;15.90;3.05;;;4.00;99.90;;;;;;4926912;29;20147;-72
2022/01/05 07:57:18;;;;;;;18.67;3.00;;;4.00;99.90;;;;;;4911023;29;20066;-71
2022/01/05 07:59:44;;;;;;;21.55;3.72;;;4.00;99.90;;;;;;4911105;29;20107;-72
2022/01/05 08:02:10;;;;;;;17.48;3.10;;;4.00;99.90;;;;;;4903477;29;20064;-71
2022/01/05 08:04:36;;;;;;;15.20;2.53;;;4.10;99.90;;;;;;4916526;29;20554;-72
2022/01/05 08:07:01;;;;;;;15.43;2.90;;;4.10;99.90;;;;;;4924560;29;20114;-72
2022/01/05 08:09:29;;;;;;;19.60;3.00;;;4.20;99.90;;;;;;4929455;29;20369;-73
2022/01/05 08:11:58;;;;;;;15.00;2.35;;;4.20;99.90;;;;;;4913494;29;20044;-68
2022/01/05 08:14:24;;;;;;;9.27;2.05;;;4.30;99.90;;;;;;4892277;29;20091;-70
2022/01/05 08:16:50;;;;;;;12.02;2.88;;;4.30;99.90;;;;;;4910337;29;20045;-72
2022/01/05 08:19:16;;;;;;;12.98;2.67;;;4.30;99.90;;;;;;4925709;29;20194;-72
2022/01/05 08:21:42;;;;;;;13.43;2.08;;;4.30;99.90;;;;;;4928626;29;20074;-72
2022/01/05 08:24:07;;;;;;;12.87;2.73;;;4.30;99.90;;;;;;4909482;29;20143;-73
2022/01/05 08:26:33;;;;;;;11.83;2.60;;;4.30;99.90;;;;;;4928083;29;20060;-72
2022/01/05 08:28:59;;;;;;;12.43;2.60;;;4.30;99.90;;;;;;4909243;29;20091;-72
2022/01/05 08:31:25;;;;;;;12.20;2.45;;;4.30;99.90;;;;;;4902313;29;20086;-74
2022/01/05 08:33:51;;;;;;;15.10;2.97;;;4.30;99.90;;;;;;4906025;29;20063;-68
2022/01/05 08:36:16;;;;;;;10.88;2.97;;;4.30;99.90;;;;;;4910689;29;20115;-75
2022/01/05 08:38:42;;;;;;;11.95;2.50;;;4.40;99.90;;;;;;4927418;29;20055;-75
2022/01/05 08:41:08;;;;;;;15.07;2.97;;;4.40;99.90;;;;;;4910186;29;20051;-73
2022/01/05 08:43:34;;;;;;;16.67;3.22;;;4.40;99.90;;;;;;4915798;29;20052;-70
2022/01/05 08:46:00;;;;;;;15.87;3.00;;;4.50;99.90;;;;;;4907583;29;20049;-71
2022/01/05 08:48:26;;;;;;;22.95;3.83;;;4.50;99.90;;;;;;4906244;29;20060;-69
2022/01/05 08:50:52;;;;;;;24.83;4.30;;;4.60;99.90;;;;;;4908570;29;20045;-69
2022/01/05 08:53:18;;;;;;;17.30;3.10;;;4.60;99.90;;;;;;4911623;29;20105;-67
2022/01/05 08:55:46;;;;;;;15.60;3.42;;;4.70;99.90;;;;;;4938217;29;20174;-70
2022/01/05 08:58:13;;;;;;;28.10;3.65;;;4.80;99.90;;;;;;4898303;29;20060;-70
2022/01/05 09:00:39;;;;;;;20.15;3.63;;;4.80;99.90;;;;;;4906618;29;20761;-67
2022/01/05 09:03:06;;;;;;;24.13;4.32;;;4.80;99.90;;;;;;4906380;29;20049;-69
2022/01/05 09:05:32;;;;;;;21.77;3.60;;;4.80;99.90;;;;;;4907181;29;20048;-68
2022/01/05 09:07:58;;;;;;;23.52;3.92;;;4.80;99.90;;;;;;4905100;29;20056;-68
2022/01/05 09:10:24;;;;;;;33.90;4.35;;;4.80;99.90;;;;;;4938801;29;20048;-69
2022/01/05 09:12:50;;;;;;;28.27;4.13;;;4.80;99.90;;;;;;4908129;29;20048;-69
2022/01/05 09:15:16;;;;;;;26.63;3.83;;;4.80;99.90;;;;;;4908308;29;20048;-69
2022/01/05 09:17:42;;;;;;;37.03;5.38;;;4.80;99.90;;;;;;4907930;29;20056;-69
2022/01/05 09:20:08;;;;;;;25.10;3.75;;;4.80;99.90;;;;;;4921271;29;20068;-69
2022/01/05 09:22:38;;;;;;;16.30;3.25;;;4.70;99.90;;;;;;4900627;29;20058;-66
2022/01/05 09:25:12;;;;;;;28.45;5.78;;;4.70;99.90;;;;;;4902046;29;20055;-67
2022/01/05 09:27:39;;;;;;;17.52;3.28;;;4.70;99.90;;;;;;4902520;29;20108;-71
2022/01/05 09:30:07;;;;;;;14.88;3.38;;;4.80;99.90;;;;;;4905523;29;20116;-70
2022/01/05 09:32:33;;;;;;;17.42;3.45;;;4.80;99.90;;;;;;4920504;29;20068;-68
2022/01/05 09:34:59;;;;;;;16.25;3.50;;;4.80;99.90;;;;;;4906093;29;20041;-74
2022/01/05 09:37:29;;;;;;;25.40;4.00;;;4.90;99.90;;;;;;4905464;29;20105;-72
2022/01/05 09:42:40;;;;;;;21.15;3.58;;;5.00;99.90;;;;;;4906034;29;20056;-72
2022/01/05 09:45:28;;;;;;;21.98;3.88;;;5.00;99.90;;;;;;4925164;29;20080;-70
2022/01/05 09:47:53;;;;;;;;;;;5.10;99.90;;;;;;4921756;29;20061;-71
2022/01/05 09:50:21;;;;;;;21.98;3.45;;;5.10;99.90;;;;;;4908670;29;19951;-70
2022/01/05 09:52:47;;;;;;;25.38;3.97;;;5.30;99.90;;;;;;4910695;29;20512;-71
2022/01/05 09:55:15;;;;;;;20.40;3.25;;;5.30;99.90;;;;;;4908237;29;20115;-71
2022/01/05 09:57:43;;;;;;;26.50;3.80;;;5.30;99.90;;;;;;4894577;29;20088;-73
2022/01/05 10:00:12;;;;;;;23.52;4.43;;;5.40;99.90;;;;;;4937821;29;20059;-72
2022/01/05 10:02:39;;;;;;;26.77;4.15;;;5.40;99.90;;;;;;4908095;29;20048;-72
2022/01/05 10:05:11;;;;;;;21.08;3.60;;;5.50;99.90;;;;;;4907952;29;20048;-73
2022/01/05 10:07:38;;;;;;;18.27;3.55;;;5.50;99.90;;;;;;4907481;29;20055;-73
2022/01/05 10:10:05;;;;;;;32.80;5.10;;;5.50;99.90;;;;;;4923864;29;20404;-73
2022/01/05 10:12:31;;;;;;;23.63;4.00;;;5.50;99.90;;;;;;4907808;29;20051;-73
2022/01/05 10:14:57;;;;;;;20.10;3.63;;;5.50;99.90;;;;;;4907724;29;20044;-72
2022/01/05 10:17:28;;;;;;;16.80;4.20;;;5.60;99.90;;;;;;4907939;29;20056;-79
2022/01/05 10:19:57;;;;;;;26.15;4.18;;;5.60;99.90;;;;;;4906999;29;20315;-74
2022/01/05 10:22:27;;;;;;;22.58;3.97;;;5.70;99.90;;;;;;4926232;29;20163;-76
2022/01/05 10:24:56;;;;;;;23.52;3.88;;;5.70;99.90;;;;;;4908982;29;20112;-79
2022/01/05 10:27:24;;;;;;;11.73;3.15;;;5.80;99.90;;;;;;4892466;29;20052;-67
2022/01/05 10:30:05;;;;;;;25.02;4.75;;;5.80;99.90;;;;;;4907627;29;20097;-75
2022/01/05 10:32:33;;;;;;;21.65;4.60;;;5.90;99.90;;;;;;4907035;29;20048;-75
2022/01/05 10:35:08;;;;;;;21.00;3.92;;;6.00;99.90;;;;;;4921622;29;20064;-74
2022/01/05 10:37:38;;;;;;;26.08;4.22;;;6.00;99.90;;;;;;4907207;29;20116;-74
2022/01/05 10:40:19;;;;;;;31.15;5.07;;;6.10;99.90;;;;;;4907312;29;20064;-73
2022/01/05 10:42:46;;;;;;;18.33;4.03;;;6.20;99.90;;;;;;4923401;29;20083;-73
2022/01/05 10:45:14;;;;;;;24.20;4.82;;;6.20;99.90;;;;;;4909475;29;20051;-73
2022/01/05 10:47:41;;;;;;;24.50;4.10;;;6.30;99.90;;;;;;4919218;29;20046;-77
2022/01/05 10:50:17;;;;;;;22.25;3.67;;;6.30;99.90;;;;;;4929168;29;20515;-74
2022/01/05 10:52:53;;;;;;;22.02;5.07;;;6.30;99.90;;;;;;4911876;29;20469;-79
2022/01/05 10:55:21;;;;;;;28.58;4.30;;;6.30;99.90;;;;;;4915457;29;20055;-76
2022/01/05 10:58:04;;;;;;;31.95;5.03;;;6.40;99.90;;;;;;4929448;29;20040;-75
2022/01/05 11:00:56;;;;;;;27.63;4.32;;;6.40;99.90;;;;;;4912488;29;20060;-73
2022/01/05 11:03:39;;;;;;;27.05;5.80;;;6.40;99.90;;;;;;4896275;29;20056;-75
2022/01/05 11:06:13;;;;;;;32.28;5.50;;;6.50;99.90;;;;;;4896645;29;20413;-75
2022/01/05 11:08:57;;;;;;;29.77;5.05;;;6.50;99.90;;;;;;4911610;29;20059;-69
2022/01/05 11:11:47;;;;;;;29.02;4.80;;;6.50;99.90;;;;;;4912146;29;20056;-69
2022/01/05 11:14:18;;;;;;;30.30;5.45;;;6.50;99.90;;;;;;4911782;29;20063;-69
2022/01/05 11:16:51;;;;;;;25.75;5.38;;;6.60;99.90;;;;;;4912264;29;20048;-69
2022/01/05 11:19:17;;;;;;;26.00;5.65;;;6.60;99.90;;;;;;4899305;29;20070;-68
2022/01/05 11:21:57;;;;;;;27.17;4.55;;;6.70;99.90;;;;;;4925307;29;20052;-68
2022/01/05 11:24:24;;;;;;;27.48;5.28;;;6.70;99.90;;;;;;4928229;29;20175;-68
2022/01/05 11:26:50;;;;;;;24.08;4.47;;;6.70;99.90;;;;;;4911211;29;20107;-69
2022/01/05 11:29:17;;;;;;;25.63;4.55;;;6.70;99.90;;;;;;4910763;29;20083;-70
2022/01/05 11:31:44;;;;;;;;;;;6.80;99.90;;;;;;4928509;29;20040;-70
2022/01/05 11:34:11;;;;;;;22.23;5.32;;;6.70;99.90;;;;;;4927872;29;19957;-69
2022/01/05 11:36:41;;;;;;;27.33;5.03;;;6.80;99.90;;;;;;4910850;29;20098;-70
2022/01/05 11:39:07;;;;;;;28.55;4.72;;;6.80;99.90;;;;;;4909815;29;20087;-70
2022/01/05 11:41:39;;;;;;;20.75;5.30;;;6.80;99.90;;;;;;4910429;29;20116;-69
2022/01/05 11:44:06;;;;;;;62.92;6.20;;;6.90;99.90;;;;;;4912393;29;20148;-69
2022/01/05 11:46:31;;;;;;;29.98;5.38;;;7.00;99.90;;;;;;4917295;29;20056;-69
2022/01/05 11:49:05;;;;;;;29.80;5.18;;;7.10;99.90;;;;;;4907908;29;20127;-69
2022/01/05 11:51:53;;;;;;;27.42;5.18;;;7.10;99.90;;;;;;4909750;29;20059;-69
2022/01/05 11:54:32;;;;;;;23.88;4.95;;;7.10;99.90;;;;;;4908354;29;20493;-69
2022/01/05 11:57:10;;;;;;;24.10;5.25;;;7.00;99.90;;;;;;4909105;29;20124;-71
2022/01/05 11:59:41;;;;;;;26.30;4.88;;;7.10;99.90;;;;;;4908986;29;20075;-67
2022/01/05 12:02:12;;;;;;;26.17;5.43;;;7.10;99.90;;;;;;4925803;29;20063;-67
2022/01/05 12:04:56;;;;;;;23.30;4.38;;;7.10;99.90;;;;;;4908950;29;20052;-69
2022/01/05 12:07:49;;;;;;;20.63;4.38;;;7.10;99.90;;;;;;4909388;29;20056;-69
2022/01/05 12:10:22;;;;;;;21.60;4.43;;;7.00;99.90;;;;;;4909505;29;20056;-71
2022/01/05 12:13:14;;;;;;;24.55;4.50;;;7.10;99.90;;;;;;4926944;29;20067;-73
2022/01/05 12:15:53;;;;;;;13.40;3.08;;;7.10;99.90;;;;;;4905669;29;20166;-74
2022/01/05 12:18:30;;;;;;;22.80;3.72;;;7.10;99.90;;;;;;4924355;29;20139;-74
2022/01/05 12:20:57;;;;;;;17.77;3.75;;;7.00;99.90;;;;;;4908820;29;20048;-72
2022/01/05 12:23:25;;;;;;;11.50;2.67;;;7.00;99.90;;;;;;4908194;29;20036;-67
2022/01/05 12:26:07;;;;;;;16.23;2.95;;;7.00;99.90;;;;;;4908878;29;20489;-72
2022/01/05 12:28:36;;;;;;;19.02;2.90;;;6.90;99.90;;;;;;4908969;29;20052;-71
2022/01/05 12:31:03;;;;;;;19.23;3.88;;;6.90;99.90;;;;;;4908742;29;20040;-70
2022/01/05 12:33:51;;;;;;;;;;;6.90;99.90;;;;;;4908640;29;20040;-70
2022/01/05 12:36:34;;;;;;;20.77;4.55;;;6.70;99.90;;;;;;4909372;29;19935;-70
2022/01/05 12:39:04;;;;;;;14.90;4.15;;;6.80;99.90;;;;;;4937390;29;20155;-69
2022/01/05 12:41:37;;;;;;;16.48;3.95;;;6.80;99.90;;;;;;4924882;29;20048;-70
2022/01/05 12:44:26;;;;;;;23.95;4.00;;;6.80;99.90;;;;;;4908971;29;20055;-70
2022/01/05 12:46:54;;;;;;;32.05;5.85;;;6.90;99.90;;;;;;4908779;29;20044;-69
2022/01/05 12:49:25;;;;;;;20.95;4.22;;;6.90;99.90;;;;;;4925084;29;20080;-71
2022/01/05 12:51:53;;;;;;;24.60;5.25;;;6.90;99.90;;;;;;4924033;29;20048;-70